Time;durP1;ratioP1;P1;durP2;ratioP2;P2;SDS_P1;SDS_P2;PMS_P1;PMS_P2;Temp;Humidity;BMP_temperature;BMP_pressure;BME280_temperature;BME280_humidity;BME280_pressure;Samples;Min_cycle;Max_cycle;Signal;HPM_P1;HPM_P2
2021/01/24 00:01:15;;;;;;;0.20;0.10;;;12.10;99.90;;;;;;20855532;28;20749;-79
2021/01/24 00:11:18;;;;;;;3.07;1.37;;;12.00;99.90;;;;;;20856656;28;20255;-77
2021/01/24 00:21:21;;;;;;;0.30;0.30;;;11.70;99.90;;;;;;20837984;28;20609;-76
2021/01/24 00:31:24;;;;;;;0.40;0.30;;;11.50;99.90;;;;;;20854293;28;20237;-78
2021/01/24 00:41:28;;;;;;;0.20;0.10;;;11.30;99.90;;;;;;20854308;28;20194;-81
2021/01/24 00:51:30;;;;;;;0.20;0.10;;;11.30;99.90;;;;;;20867580;28;20666;-81
2021/01/24 01:01:33;;;;;;;0.20;0.10;;;11.10;99.90;;;;;;20865610;22;20384;-68
2021/01/24 01:11:36;;;;;;;1.70;0.50;;;11.30;99.90;;;;;;20786397;28;20946;-68
2021/01/24 01:21:41;;;;;;;0.20;0.10;;;11.50;99.90;;;;;;20787825;28;20201;-69
2021/01/24 01:31:45;;;;;;;0.60;0.60;;;11.30;99.90;;;;;;20788083;28;21062;-68
2021/01/24 01:41:48;;;;;;;1.17;0.27;;;11.40;99.90;;;;;;20784240;28;20214;-69
2021/01/24 01:51:51;;;;;;;0.20;0.13;;;11.70;99.90;;;;;;20799379;28;20226;-67
2021/01/24 02:02:05;;;;;;;0.23;0.13;;;12.10;99.90;;;;;;20782118;28;20253;-68
2021/01/24 02:12:14;;;;;;;0.40;0.20;;;11.90;99.90;;;;;;20781874;28;20573;-68
2021/01/24 02:22:18;;;;;;;0.20;0.10;;;12.00;99.90;;;;;;20781870;28;21147;-67
2021/01/24 02:32:25;;;;;;;0.20;0.10;;;11.90;99.90;;;;;;20779943;28;20587;-67
2021/01/24 02:42:29;;;;;;;0.27;0.13;;;11.60;99.90;;;;;;20780760;28;20225;-68
2021/01/24 02:52:35;;;;;;;0.30;0.20;;;11.30;99.90;;;;;;20785101;28;21094;-66
2021/01/24 03:02:37;;;;;;;0.20;0.10;;;11.10;99.90;;;;;;20781586;28;20313;-68
2021/01/24 03:12:48;;;;;;;0.20;0.10;;;10.90;99.90;;;;;;20779611;28;20236;-68
2021/01/24 03:22:52;;;;;;;0.20;0.10;;;11.30;99.90;;;;;;20780049;28;20541;-68
2021/01/24 03:32:56;;;;;;;0.20;0.03;;;12.30;99.90;;;;;;20780738;28;20226;-69
2021/01/24 03:43:00;;;;;;;0.20;0.00;;;12.40;99.90;;;;;;20777814;28;20198;-67
2021/01/24 03:53:04;;;;;;;0.20;0.10;;;12.40;99.90;;;;;;20777358;28;20230;-68
2021/01/24 04:03:06;;;;;;;0.30;0.30;;;12.70;99.90;;;;;;20773797;28;20250;-66
2021/01/24 04:13:10;;;;;;;0.20;0.03;;;12.90;99.90;;;;;;20776771;28;20300;-65
2021/01/24 04:23:14;;;;;;;0.77;0.17;;;13.20;99.90;;;;;;20782434;28;20295;-66
2021/01/24 04:33:17;;;;;;;0.43;0.23;;;13.40;99.90;;;;;;20790985;28;20325;-65
2021/01/24 04:43:20;;;;;;;0.20;0.10;;;13.40;99.90;;;;;;20789866;28;20284;-67
2021/01/24 04:53:25;;;;;;;0.30;0.20;;;13.40;99.90;;;;;;20789307;28;21186;-66
2021/01/24 05:03:28;;;;;;;0.30;0.30;;;13.20;99.90;;;;;;20784177;22;20999;-69
2021/01/24 05:13:32;;;;;;;0.20;0.10;;;13.10;99.90;;;;;;20690169;28;20540;-68
2021/01/24 05:23:37;;;;;;;0.20;0.10;;;12.70;99.90;;;;;;20703974;28;20277;-70
2021/01/24 05:33:45;;;;;;;0.20;0.10;;;13.10;99.90;;;;;;20686075;28;20297;-69
2021/01/24 05:43:48;;;;;;;0.80;0.50;;;12.80;99.90;;;;;;20701283;28;20202;-69
2021/01/24 05:53:51;;;;;;;0.20;0.10;;;12.80;99.90;;;;;;20759498;28;20260;-68
2021/01/24 06:03:55;;;;;;;0.23;0.20;;;12.60;99.90;;;;;;20781428;28;20226;-66
2021/01/24 06:14:03;;;;;;;0.97;0.37;;;12.90;99.90;;;;;;20750842;28;20553;-69
2021/01/24 06:24:10;;;;;;;0.20;0.10;;;12.80;99.90;;;;;;20781929;28;20317;-67
2021/01/24 06:34:14;;;;;;;0.20;0.10;;;12.60;99.90;;;;;;20780651;28;20694;-69
2021/01/24 06:44:38;;;;;;;0.20;0.10;;;12.70;99.90;;;;;;20761994;28;20191;-68
2021/01/24 06:54:42;;;;;;;4.80;0.80;;;12.40;99.90;;;;;;20715209;28;21237;-67
2021/01/24 07:05:17;;;;;;;0.20;0.00;;;11.80;99.90;;;;;;20696974;28;20306;-67
2021/01/24 07:15:22;;;;;;;0.20;0.20;;;11.60;99.90;;;;;;20694116;28;20301;-68
2021/01/24 07:25:25;;;;;;;0.20;0.10;;;12.00;99.90;;;;;;20675335;28;20960;-70
2021/01/24 07:35:34;;;;;;;0.20;0.17;;;12.00;99.90;;;;;;20693808;28;20392;-69
2021/01/24 07:45:36;;;;;;;0.77;0.67;;;11.70;99.90;;;;;;20695377;28;20361;-69
2021/01/24 07:55:41;;;;;;;0.20;0.10;;;11.30;99.90;;;;;;20768370;28;20214;-69
2021/01/24 08:05:46;;;;;;;0.20;0.20;;;11.10;99.90;;;;;;20793038;28;20222;-71
2021/01/24 08:15:51;;;;;;;0.20;0.10;;;10.70;99.90;;;;;;20790706;28;20276;-73
2021/01/24 08:25:55;;;;;;;0.20;0.10;;;10.60;99.90;;;;;;20792601;28;20277;-73
2021/01/24 08:36:12;;;;;;;0.60;0.57;;;10.50;99.90;;;;;;20787823;28;20598;-74
2021/01/24 08:46:24;;;;;;;0.20;0.10;;;10.50;99.90;;;;;;20786818;28;20229;-72
2021/01/24 08:56:28;;;;;;;1.17;1.00;;;10.60;99.90;;;;;;20692901;28;20225;-75
2021/01/24 09:06:31;;;;;;;4.03;0.57;;;10.70;99.90;;;;;;20701604;28;20226;-72
2021/01/24 09:16:34;;;;;;;0.20;0.10;;;11.00;99.90;;;;;;20698619;28;20755;-73
2021/01/24 09:26:37;;;;;;;0.27;0.27;;;11.10;99.90;;;;;;20693195;28;20195;-73
2021/01/24 09:36:40;;;;;;;2.07;1.90;;;11.10;99.90;;;;;;20694565;28;20629;-72
2021/01/24 09:46:43;;;;;;;0.20;0.10;;;11.50;99.90;;;;;;20693859;28;20654;-74
2021/01/24 09:56:56;;;;;;;0.20;0.10;;;11.60;99.90;;;;;;20696659;28;20509;-72
2021/01/24 10:06:59;;;;;;;0.20;0.10;;;11.90;99.90;;;;;;20694894;28;20279;-73
2021/01/24 10:17:02;;;;;;;0.20;0.10;;;12.10;99.90;;;;;;20684486;28;20226;-73
2021/01/24 10:27:05;;;;;;;0.20;0.10;;;12.30;99.90;;;;;;20686894;28;20199;-72
2021/01/24 10:37:26;;;;;;;1.53;0.57;;;12.80;99.90;;;;;;20683833;28;20234;-72
2021/01/24 10:47:29;;;;;;;0.20;0.10;;;13.30;99.90;;;;;;20676739;28;20665;-74
2021/01/24 10:57:33;;;;;;;0.20;0.10;;;13.60;99.90;;;;;;20687852;28;20536;-75
2021/01/24 11:07:36;;;;;;;0.33;0.33;;;14.60;99.90;;;;;;20683821;28;20664;-72
2021/01/24 11:17:41;;;;;;;0.20;0.10;;;14.80;99.90;;;;;;20691020;28;20318;-72
2021/01/24 11:27:44;;;;;;;0.20;0.10;;;15.30;99.90;;;;;;20687380;28;20203;-74
2021/01/24 11:37:48;;;;;;;0.20;0.10;;;16.00;99.90;;;;;;20653883;28;20485;-73
2021/01/24 11:47:52;;;;;;;0.23;0.13;;;15.60;99.90;;;;;;20686775;28;20294;-74
2021/01/24 11:57:56;;;;;;;0.20;0.20;;;16.10;99.90;;;;;;20667309;28;20235;-73
2021/01/24 12:07:58;;;;;;;5.73;0.23;;;16.00;99.90;;;;;;20681202;28;20239;-73
2021/01/24 12:18:02;;;;;;;0.20;0.20;;;17.00;99.90;;;;;;20609413;28;20626;-74
2021/01/24 12:28:15;;;;;;;4.27;2.83;;;17.50;99.90;;;;;;20602114;28;20663;-71
2021/01/24 12:38:19;;;;;;;0.20;0.20;;;18.40;99.90;;;;;;20608140;28;20259;-72
2021/01/24 12:48:22;;;;;;;0.93;0.53;;;17.90;99.90;;;;;;20645259;28;20194;-73
2021/01/24 12:58:27;;;;;;;0.30;0.30;;;18.50;99.90;;;;;;20786789;28;20218;-72
2021/01/24 13:08:30;;;;;;;1.63;0.67;;;18.40;99.90;;;;;;20767739;28;20237;-72
2021/01/24 13:18:34;;;;;;;0.57;0.43;;;18.50;99.90;;;;;;20703145;28;20210;-73
2021/01/24 13:28:36;;;;;;;4.13;1.60;;;18.30;99.90;;;;;;20701482;28;20195;-73
2021/01/24 13:38:40;;;;;;;1.93;1.03;;;17.80;99.90;;;;;;20701409;28;20207;-74
2021/01/24 13:48:42;;;;;;;1.90;1.43;;;19.20;99.90;;;;;;20713614;28;20270;-73
2021/01/24 13:58:46;;;;;;;0.97;0.80;;;19.10;99.90;;;;;;20778598;28;20276;-72
2021/01/24 14:08:49;;;;;;;0.40;0.40;;;19.30;99.90;;;;;;20761174;28;20226;-72
2021/01/24 14:18:52;;;;;;;0.97;0.53;;;21.00;99.90;;;;;;20699124;28;20911;-73
2021/01/24 14:28:55;;;;;;;3.13;0.20;;;21.40;99.90;;;;;;20655155;28;20203;-73
2021/01/24 14:38:58;;;;;;;0.87;0.30;;;21.00;99.90;;;;;;20643176;28;20676;-73
2021/01/24 14:49:02;;;;;;;0.20;0.10;;;20.50;99.90;;;;;;20711499;28;20574;-74
2021/01/24 14:59:06;;;;;;;0.20;0.13;;;20.00;99.90;;;;;;20713900;28;20600;-71
2021/01/24 15:09:08;;;;;;;0.30;0.30;;;21.10;99.90;;;;;;20689421;28;20770;-71
2021/01/24 15:19:17;;;;;;;0.20;0.10;;;21.60;99.90;;;;;;20691244;28;20202;-72
2021/01/24 15:29:20;;;;;;;0.20;0.10;;;20.60;99.90;;;;;;20688543;28;20223;-69
2021/01/24 15:39:24;;;;;;;0.20;0.10;;;17.40;99.90;;;;;;20690893;28;20297;-70
2021/01/24 15:59:50;;;;;;;0.20;0.10;;;18.30;99.90;;;;;;22014783;23;20696;-78
2021/01/24 16:09:53;;;;;;;0.20;0.10;;;16.50;99.90;;;;;;20526052;28;20648;-74
2021/01/24 16:19:57;;;;;;;0.47;0.40;;;15.70;99.90;;;;;;20536910;28;20240;-77
2021/01/24 16:30:00;;;;;;;0.20;0.10;;;15.30;99.90;;;;;;20539658;28;20228;-75
2021/01/24 16:40:06;;;;;;;0.20;0.20;;;14.90;99.90;;;;;;20525323;28;20270;-73
2021/01/24 16:50:10;;;;;;;0.23;0.13;;;14.50;99.90;;;;;;20541107;28;20242;-74
2021/01/24 17:00:15;;;;;;;0.50;0.20;;;14.20;99.90;;;;;;20558166;28;20232;-78
2021/01/24 17:10:19;;;;;;;4.20;0.50;;;14.10;99.90;;;;;;20522974;28;20688;-73
2021/01/24 17:20:22;;;;;;;0.23;0.20;;;13.80;99.90;;;;;;20520583;28;21020;-77
2021/01/24 17:30:26;;;;;;;0.43;0.43;;;13.70;99.90;;;;;;20471362;28;20248;-76
2021/01/24 17:40:29;;;;;;;0.20;0.20;;;13.60;99.90;;;;;;20543786;28;20238;-76
2021/01/24 17:50:32;;;;;;;0.30;0.23;;;13.70;99.90;;;;;;20614226;28;20586;-76
2021/01/24 18:00:36;;;;;;;0.20;0.10;;;13.70;99.90;;;;;;20613580;28;20420;-75
2021/01/24 18:10:39;;;;;;;0.73;0.43;;;13.70;99.90;;;;;;20612001;28;20485;-73
2021/01/24 18:20:43;;;;;;;0.50;0.40;;;13.70;99.90;;;;;;20607909;28;20814;-72
2021/01/24 18:30:46;;;;;;;0.40;0.40;;;13.60;99.90;;;;;;20512433;28;20235;-73
2021/01/24 18:40:49;;;;;;;0.20;0.10;;;13.60;99.90;;;;;;20523794;28;20203;-73
2021/01/24 18:50:52;;;;;;;0.20;0.13;;;13.50;99.90;;;;;;20478534;28;20248;-76
2021/01/24 19:00:56;;;;;;;0.33;0.20;;;13.30;99.90;;;;;;20514440;28;20216;-76
2021/01/24 19:10:59;;;;;;;0.20;0.03;;;13.40;99.90;;;;;;20526964;28;20742;-74
2021/01/24 19:21:03;;;;;;;0.40;0.20;;;13.30;99.90;;;;;;20530018;28;20195;-75
2021/01/24 19:31:06;;;;;;;0.50;0.13;;;13.10;99.90;;;;;;20455381;28;20232;-74
2021/01/24 19:41:11;;;;;;;0.20;0.10;;;13.00;99.90;;;;;;22150627;23;20333;-68
2021/01/24 19:51:14;;;;;;;0.40;0.40;;;12.80;99.90;;;;;;20596005;28;20699;-68
2021/01/24 20:01:20;;;;;;;11.23;1.23;;;12.40;99.90;;;;;;20606510;28;20199;-68
2021/01/24 20:11:24;;;;;;;2.67;1.50;;;11.80;99.90;;;;;;20607533;28;20254;-68
2021/01/24 20:21:27;;;;;;;1.33;1.03;;;11.40;99.90;;;;;;20609736;28;20284;-71
2021/01/24 20:31:30;;;;;;;1.40;0.73;;;11.20;99.90;;;;;;20608572;28;20227;-69
2021/01/24 20:41:36;;;;;;;0.77;0.70;;;10.60;99.90;;;;;;20618436;28;20223;-71
2021/01/24 20:51:39;;;;;;;1.67;1.57;;;10.40;99.90;;;;;;20606288;28;20706;-72
2021/01/24 21:01:43;;;;;;;0.60;0.53;;;10.40;99.90;;;;;;20609935;28;20199;-70
2021/01/24 21:11:46;;;;;;;0.50;0.30;;;10.60;99.90;;;;;;20622010;28;20725;-72
2021/01/24 21:21:52;;;;;;;0.57;0.23;;;11.00;99.90;;;;;;20622586;28;20218;-73
2021/01/24 21:31:55;;;;;;;0.20;0.10;;;11.10;99.90;;;;;;20621401;28;20235;-72
2021/01/24 21:42:02;;;;;;;0.30;0.30;;;10.60;99.90;;;;;;20620834;28;21005;-71
2021/01/24 21:52:08;;;;;;;0.20;0.20;;;11.20;99.90;;;;;;20617219;28;20219;-72
2021/01/24 22:02:11;;;;;;;0.20;0.10;;;11.40;99.90;;;;;;20623844;28;20200;-71
2021/01/24 22:12:14;;;;;;;0.40;0.37;;;11.50;99.90;;;;;;20614698;28;20276;-71
2021/01/24 22:22:17;;;;;;;0.20;0.20;;;11.50;99.90;;;;;;20616957;28;20305;-70
2021/01/24 22:32:20;;;;;;;1.70;0.77;;;11.40;99.90;;;;;;20613814;28;20255;-72
2021/01/24 22:42:24;;;;;;;0.47;0.23;;;11.30;99.90;;;;;;20617811;28;20557;-71
2021/01/24 22:52:26;;;;;;;0.20;0.20;;;11.20;99.90;;;;;;20613098;28;20239;-71
2021/01/24 23:02:30;;;;;;;0.47;0.30;;;11.40;99.90;;;;;;20613490;28;20258;-71
2021/01/24 23:12:33;;;;;;;0.20;0.17;;;11.40;99.90;;;;;;20610254;28;20227;-71
2021/01/24 23:22:37;;;;;;;1.90;0.67;;;11.30;99.90;;;;;;20627127;28;20260;-70
2021/01/24 23:32:39;;;;;;;0.20;0.20;;;11.30;99.90;;;;;;20627743;28;20334;-70
2021/01/24 23:42:43;;;;;;;1.60;0.57;;;11.10;99.90;;;;;;20613890;28;20231;-71
2021/01/24 23:52:45;;;;;;;0.20;0.10;;;11.30;99.90;;;;;;20609847;28;20317;-70
